D/T METAR WX W/DIR W/SPE G/SPE TEMP DEWP
23/05/19 13:50 EGXU 231250Z 27012KT 9999 SCT035 SCT048 BKN100 18/09 Q1014 BLU NOSIG W (270°) 13.8mph 18°C 9°C
23/05/19 12:50 EGXU 231150Z 30007KT 9999 SCT030 SCT040 BKN080 16/09 Q1015 BLU NOSIG WNW (300°) 8.1mph 16°C 9°C
23/05/19 11:50 EGXU 231050Z 30010KT 9999 SCT025 BKN090 15/09 Q1015 BLU NOSIG WNW (300°) 11.5mph 15°C 9°C
23/05/19 10:50 EGXU 230950Z 29009KT 9999 FEW024 SCT075 BKN100 14/09 Q1015 BLU NOSIG WNW (290°) 10.4mph 14°C 9°C
23/05/19 09:50 EGXU 230850Z 27009KT 9999 FEW020 BKN070 13/08 Q1015 BLU NOSIG W (270°) 10.4mph 13°C 8°C
23/05/19 08:50 EGXU 230750Z 26006KT 9999 FEW020 SCT080 BKN100 12/08 Q1016 BLU NOSIG W (260°) 6.9mph 12°C 8°C
23/05/19 07:50 EGXU 230650Z 24006KT 9999 FEW016 SCT080 BKN110 11/07 Q1016 BLU NOSIG WSW (240°) 6.9mph 11°C 7°C
23/05/19 07:32 EGXU 230632Z 24007KT CAVOK 11/07 Q1016 BLU NOSIG WSW (240°) 8.1mph 11°C 7°C
23/05/19 06:50 EGXU 230550Z 23006KT CAVOK 11/07 Q1015 BLU SW (230°) 6.9mph 11°C 7°C
23/05/19 05:50 EGXU 230450Z AUTO 23006KT 9999 // FEW120/// 08/06 Q1015 SW (230°) 6.9mph 8°C 6°C
23/05/19 04:50 EGXU 230350Z AUTO 24003KT 9999 // FEW160/// 08/05 Q1015 WSW (240°) 3.5mph 8°C 5°C
23/05/19 03:50 EGXU 230250Z AUTO 25005KT 9999 // BKN170/// 07/04 Q1016 WSW (250°) 5.8mph 7°C 4°C
23/05/19 02:50 EGXU 230150Z AUTO 21004KT 9999 // BKN170/// SCT220/// 08/05 Q1016 SSW (210°) 4.6mph 8°C 5°C
23/05/19 01:50 EGXU 230050Z AUTO 19003KT 9999 // BKN190/// 07/05 Q1016 S (190°) 3.5mph 7°C 5°C
23/05/19 00:50 EGXU 222350Z AUTO 26008KT 9999 // FEW180/// 09/05 Q1016 W (260°) 9.2mph 9°C 5°C
22/05/19 23:50 EGXU 222250Z AUTO 27006KT 9999 // FEW210/// 09/04 Q1016 W (270°) 6.9mph 9°C 4°C
22/05/19 22:50 EGXU 222150Z AUTO 25006KT 9999 // SCT170/// 11/03 Q1016 WSW (250°) 6.9mph 11°C 3°C
22/05/19 21:50 EGXU 222050Z AUTO 25004KT 9999 // SCT180/// 11/04 Q1016 WSW (250°) 4.6mph 11°C 4°C
22/05/19 20:50 EGXU 221950Z AUTO 28008KT 9999 // FEW180/// 13/05 Q1016 W (280°) 9.2mph 13°C 5°C
22/05/19 19:50 EGXU 221850Z AUTO 28005KT 9999 // NCD 15/07 Q1016 W (280°) 5.8mph 15°C 7°C
22/05/19 18:50 EGXU 221750Z AUTO 26009KT 9999 // FEW190/// 16/08 Q1016 W (260°) 10.4mph 16°C 8°C
22/05/19 17:50 EGXU 221650Z AUTO 26011KT 9999 // FEW200/// 18/08 Q1016 W (260°) 12.7mph 18°C 8°C
22/05/19 16:50 EGXU 221550Z 27013KT CAVOK 18/07 Q1016 BLU NOSIG W (270°) 15.0mph 18°C 7°C
22/05/19 15:50 EGXU 221450Z 27012KT CAVOK 19/07 Q1016 BLU NOSIG W (270°) 13.8mph 19°C 7°C
22/05/19 14:50 EGXU 221350Z 27013KT CAVOK 19/07 Q1017 BLU NOSIG W (270°) 15.0mph 19°C 7°C
22/05/19 13:50 EGXU 221250Z 27014KT CAVOK 19/07 Q1017 BLU NOSIG W (270°) 16.1mph 19°C 7°C
22/05/19 12:50 EGXU 221150Z 25013KT CAVOK 18/07 Q1017 BLU NOSIG WSW (250°) 15.0mph 18°C 7°C
22/05/19 11:50 EGXU 221050Z 27010KT 9999 SCT043 18/07 Q1017 BLU NOSIG W (270°) 11.5mph 18°C 7°C
22/05/19 10:50 EGXU 220950Z 27012KT 9999 SCT040 17/08 Q1018 BLU NOSIG W (270°) 13.8mph 17°C 8°C
22/05/19 09:50 EGXU 220850Z 25013KT 9999 FEW030 15/07 Q1018 BLU NOSIG WSW (250°) 15.0mph 15°C 7°C
22/05/19 08:50 EGXU 220750Z 28007KT 9999 FEW024 13/08 Q1018 BLU NOSIG W (280°) 8.1mph 13°C 8°C
22/05/19 07:50 EGXU 220650Z 26005KT 9999 FEW016 11/06 Q1018 BLU NOSIG W (260°) 5.8mph 11°C 6°C
22/05/19 06:50 EGXU 220550Z 19003KT 9999 FEW012 08/05 Q1018 BLU NOSIG S (190°) 3.5mph 8°C 5°C
22/05/19 05:50 EGXU 220450Z AUTO 20001KT 9999 // NCD 06/05 Q1018 SSW (200°) 1.2mph 6°C 5°C
22/05/19 04:50 EGXU 220350Z AUTO 22006KT 9999 // NCD 07/05 Q1018 SW (220°) 6.9mph 7°C 5°C
22/05/19 03:50 EGXU 220250Z AUTO 33002KT 9999 // NCD 06/05 Q1019 NNW (330°) 2.3mph 6°C 5°C
22/05/19 02:50 EGXU 220150Z AUTO 29005KT 9999 // NCD 07/04 Q1019 WNW (290°) 5.8mph 7°C 4°C
22/05/19 01:50 EGXU 220050Z AUTO 26006KT 9999 // NCD 07/04 Q1019 W (260°) 6.9mph 7°C 4°C
22/05/19 00:50 EGXU 212350Z AUTO 26006KT 9999 // NCD 09/05 Q1019 W (260°) 6.9mph 9°C 5°C
21/05/19 23:50 EGXU 212250Z AUTO 27007KT 9999 // FEW060/// 09/05 Q1019 W (270°) 8.1mph 9°C 5°C
21/05/19 22:50 EGXU 212150Z AUTO 27007KT 9999 // NCD 10/05 Q1019 W (270°) 8.1mph 10°C 5°C
21/05/19 21:50 EGXU 212050Z AUTO 25007KT 9999 // NCD 11/06 Q1018 WSW (250°) 8.1mph 11°C 6°C
21/05/19 20:50 EGXU 211950Z AUTO 26007KT 9999 // NCD 13/05 Q1018 W (260°) 8.1mph 13°C 5°C
21/05/19 19:50 EGXU 211850Z AUTO 26008KT 9999 // NCD 15/05 Q1018 W (260°) 9.2mph 15°C 5°C
21/05/19 18:50 EGXU 211750Z AUTO 25013KT 9999 // NCD 17/06 Q1018 WSW (250°) 15.0mph 17°C 6°C
21/05/19 17:50 EGXU 211650Z AUTO 25014KT 9999 // SCT050/// 18/07 Q1017 WSW (250°) 16.1mph 18°C 7°C
21/05/19 16:50 EGXU 211550Z 25009KT CAVOK 17/08 Q1017 BLU NOSIG WSW (250°) 10.4mph 17°C 8°C
21/05/19 15:50 EGXU 211450Z 29008KT CAVOK 18/06 Q1017 BLU NOSIG WNW (290°) 9.2mph 18°C 6°C